Time;durP1;ratioP1;P1;durP2;ratioP2;P2;SDS_P1;SDS_P2;PMS_P1;PMS_P2;Temp;Humidity;BMP_temperature;BMP_pressure;BME280_temperature;BME280_humidity;BME280_pressure;Samples;Min_cycle;Max_cycle;Signal;HPM_P1;HPM_P2
2022/06/26 00:01:46;;;;;;;;;;;;;;;22.65;75.81;96714.72;4219530;28;5742;-72
2022/06/26 00:03:51;;;;;;;;;;;;;;;22.67;76.08;96717.94;4219534;28;5079;-71
2022/06/26 00:05:54;;;;;;;;;;;;;;;22.71;76.06;96720.88;4218729;28;5820;-70
2022/06/26 00:07:57;;;;;;;;;;;;;;;22.71;75.60;96720.09;4219019;28;5661;-72
2022/06/26 00:10:00;;;;;;;;;;;;;;;22.73;75.80;96720.63;4219299;28;5803;-71
2022/06/26 00:12:04;;;;;;;;;;;;;;;22.75;75.75;96721.16;4219232;28;5858;-71
2022/06/26 00:14:07;;;;;;;;;;;;;;;22.76;75.71;96718.16;4218652;28;6345;-71
2022/06/26 00:16:10;;;;;;;;;;;;;;;22.78;75.54;96710.66;4219192;28;5750;-71
2022/06/26 00:18:13;;;;;;;;;;;;;;;22.75;75.61;96708.47;4219312;28;7123;-71
2022/06/26 00:20:17;;;;;;;;;;;;;;;22.76;75.52;96711.97;4218943;28;5739;-70
2022/06/26 00:22:21;;;;;;;;;;;;;;;22.75;75.38;96710.38;4219252;28;5684;-71
2022/06/26 00:24:24;;;;;;;;;;;;;;;22.75;75.39;96713.88;4217017;28;5696;-71
2022/06/26 00:26:27;;;;;;;;;;;;;;;22.76;74.75;96706.59;4219158;28;5679;-71
2022/06/26 00:28:30;;;;;;;;;;;;;;;22.75;75.00;96700.38;4218829;28;5914;-71
2022/06/26 00:30:33;;;;;;;;;;;;;;;22.76;74.91;96693.91;4219079;28;5754;-71
2022/06/26 00:32:36;;;;;;;;;;;;;;;22.80;74.59;96681.53;4218683;28;5735;-72
2022/06/26 00:34:39;;;;;;;;;;;;;;;22.82;74.25;96692.03;4219120;28;5671;-71
2022/06/26 00:36:46;;;;;;;;;;;;;;;22.79;74.47;96696.09;4218673;28;5876;-72
2022/06/26 00:38:49;;;;;;;;;;;;;;;22.80;74.46;96702.28;4218901;28;7686;-71
2022/06/26 00:40:51;;;;;;;;;;;;;;;22.82;73.95;96702.81;4218634;28;5682;-72
2022/06/26 00:42:54;;;;;;;;;;;;;;;22.82;74.07;96703.63;4218775;28;7110;-71
2022/06/26 00:44:57;;;;;;;;;;;;;;;22.83;73.69;96701.72;4218651;28;6387;-72
2022/06/26 00:47:00;;;;;;;;;;;;;;;22.87;73.90;96692.03;4219001;28;5763;-72
2022/06/26 00:49:03;;;;;;;;;;;;;;;22.86;73.56;96688.53;4218929;28;5845;-71
2022/06/26 00:51:07;;;;;;;;;;;;;;;22.84;73.14;96696.09;4218356;28;5743;-71
2022/06/26 00:53:11;;;;;;;;;;;;;;;22.80;73.52;96694.19;4218839;28;5661;-71
2022/06/26 00:55:15;;;;;;;;;;;;;;;22.81;73.32;96693.13;4218698;28;5664;-71
2022/06/26 00:57:18;;;;;;;;;;;;;;;22.77;73.43;96689.38;4218626;28;5762;-72
2022/06/26 00:59:21;;;;;;;;;;;;;;;22.76;73.03;96701.19;4218607;28;5747;-71
2022/06/26 01:01:23;;;;;;;;;;;;;;;22.80;72.87;96696.91;4218787;28;5759;-71
2022/06/26 01:03:27;;;;;;;;;;;;;;;22.84;72.89;96695.28;4218545;28;5829;-71
2022/06/26 01:05:29;;;;;;;;;;;;;;;22.87;72.99;96686.66;4218632;28;5661;-72
2022/06/26 01:07:32;;;;;;;;;;;;;;;22.90;72.64;96680.72;4210264;28;5660;-71
2022/06/26 01:09:38;;;;;;;;;;;;;;;22.90;72.19;96680.72;4234347;28;5837;-71
2022/06/26 01:11:43;;;;;;;;;;;;;;;22.91;72.61;96682.34;4235398;27;5654;-71
2022/06/26 01:13:46;;;;;;;;;;;;;;;22.94;72.14;96687.97;4233771;28;5741;-71
2022/06/26 01:15:50;;;;;;;;;;;;;;;22.95;72.05;96694.19;4235201;28;5744;-71
2022/06/26 01:17:54;;;;;;;;;;;;;;;22.96;72.24;96695.78;4235226;27;5642;-71
2022/06/26 01:19:57;;;;;;;;;;;;;;;22.96;71.69;96687.69;4235301;27;5745;-71
2022/06/26 01:22:01;;;;;;;;;;;;;;;22.98;71.61;96688.22;4233518;28;5654;-72
2022/06/26 01:24:06;;;;;;;;;;;;;;;23.02;71.66;96688.50;4221755;28;5667;-72
2022/06/26 01:26:09;;;;;;;;;;;;;;;23.02;72.05;96678.53;4218167;28;7393;-72
2022/06/26 01:28:12;;;;;;;;;;;;;;;23.04;71.84;96675.56;4218041;28;5741;-71
2022/06/26 01:30:15;;;;;;;;;;;;;;;23.02;71.63;96667.75;4216695;28;5798;-71
2022/06/26 01:32:18;;;;;;;;;;;;;;;23.03;71.57;96669.34;4217985;28;5730;-71
2022/06/26 01:34:21;;;;;;;;;;;;;;;23.04;71.59;96660.19;4217905;28;5663;-71
2022/06/26 01:36:24;;;;;;;;;;;;;;;23.05;71.75;96661.00;4217696;28;5671;-71
2022/06/26 01:38:27;;;;;;;;;;;;;;;23.04;71.80;96670.97;4216644;28;5663;-71
2022/06/26 01:40:31;;;;;;;;;;;;;;;23.05;71.87;96669.06;4218100;28;5747;-72
2022/06/26 01:42:34;;;;;;;;;;;;;;;23.03;71.80;96663.97;4216479;28;5678;-72
2022/06/26 01:44:37;;;;;;;;;;;;;;;23.04;71.37;96660.19;4217918;28;5663;-71
2022/06/26 01:46:40;;;;;;;;;;;;;;;23.05;71.20;96661.78;4217731;28;5768;-71
2022/06/26 01:48:43;;;;;;;;;;;;;;;23.05;71.46;96664.50;4217748;28;5671;-71
2022/06/26 01:50:47;;;;;;;;;;;;;;;23.07;71.30;96661.53;4217426;28;5659;-71
2022/06/26 01:52:50;;;;;;;;;;;;;;;23.08;71.34;96661.25;4217968;28;5675;-72
2022/06/26 01:54:53;;;;;;;;;;;;;;;23.09;71.26;96670.13;4217934;28;5754;-72
2022/06/26 01:56:57;;;;;;;;;;;;;;;23.07;70.98;96662.31;4217862;28;5672;-72
2022/06/26 01:59:00;;;;;;;;;;;;;;;23.07;70.85;96669.59;4217644;28;7540;-72
2022/06/26 02:01:05;;;;;;;;;;;;;;;23.07;70.83;96673.09;4217686;28;5687;-72
2022/06/26 02:03:09;;;;;;;;;;;;;;;23.08;70.41;96671.22;4217445;28;5774;-72
2022/06/26 02:05:12;;;;;;;;;;;;;;;23.08;70.42;96671.22;4217218;28;5686;-72
2022/06/26 02:07:15;;;;;;;;;;;;;;;23.08;70.10;96665.81;4222345;28;5769;-72
2022/06/26 02:14:11;;;;;;;;;;;;;;;23.08;69.79;96668.53;4165544;28;5743;-72
2022/06/26 02:16:20;;;;;;;;;;;;;;;23.07;70.07;96673.09;4166145;28;5770;-71
2022/06/26 02:18:25;;;;;;;;;;;;;;;23.06;69.85;96660.72;4166118;28;5696;-72
2022/06/26 02:20:28;;;;;;;;;;;;;;;23.08;69.85;96661.25;4167855;28;6516;-72
2022/06/26 02:22:31;;;;;;;;;;;;;;;23.09;69.57;96662.84;4169349;28;5785;-72
2022/06/26 02:24:33;;;;;;;;;;;;;;;23.11;69.25;96657.22;4169068;28;5751;-72
2022/06/26 02:26:36;;;;;;;;;;;;;;;23.11;69.49;96649.94;4169056;28;7779;-72
2022/06/26 02:28:40;;;;;;;;;;;;;;;23.10;69.23;96640.19;4169472;28;5755;-73
2022/06/26 02:30:46;;;;;;;;;;;;;;;23.08;69.20;96633.47;4169433;28;5754;-73
2022/06/26 02:32:49;;;;;;;;;;;;;;;23.06;69.43;96641.84;4168808;28;5769;-73
2022/06/26 02:34:52;;;;;;;;;;;;;;;23.05;69.04;96642.94;4169117;28;5819;-73
2022/06/26 02:36:54;;;;;;;;;;;;;;;23.06;69.26;96638.34;4168851;28;7732;-73
2022/06/26 02:38:57;;;;;;;;;;;;;;;23.05;68.93;96640.22;4168767;28;5754;-73
2022/06/26 02:41:00;;;;;;;;;;;;;;;23.04;69.03;96635.91;4169079;28;5767;-72
2022/06/26 02:43:03;;;;;;;;;;;;;;;23.05;68.71;96645.63;4168816;28;5766;-73
2022/06/26 02:45:08;;;;;;;;;;;;;;;23.05;68.40;96640.22;4180616;28;5654;-73
2022/06/26 02:47:12;;;;;;;;;;;;;;;23.04;68.32;96649.41;4237399;27;5642;-73
2022/06/26 02:49:15;;;;;;;;;;;;;;;23.02;68.58;96646.19;4237421;27;5753;-73
2022/06/26 02:51:19;;;;;;;;;;;;;;;23.02;67.93;96640.78;4237500;27;5734;-73
2022/06/26 02:53:22;;;;;;;;;;;;;;;23.01;67.81;96639.19;4237503;28;5670;-72
2022/06/26 02:55:25;;;;;;;;;;;;;;;23.02;68.10;96648.88;4237637;27;5741;-72
2022/06/26 02:57:28;;;;;;;;;;;;;;;23.03;67.56;96653.19;4237383;27;5654;-72
2022/06/26 02:59:31;;;;;;;;;;;;;;;22.99;67.99;96646.75;4237233;27;5655;-72
2022/06/26 03:01:34;;;;;;;;;;;;;;;23.00;67.59;96640.25;4237574;27;5642;-71
2022/06/26 03:03:38;;;;;;;;;;;;;;;23.02;67.62;96637.28;4237510;28;5658;-71
2022/06/26 03:05:41;;;;;;;;;;;;;;;22.98;67.32;96628.13;4235991;27;5634;-71
2022/06/26 03:07:45;;;;;;;;;;;;;;;23.00;67.01;96626.78;4220347;28;5782;-71
2022/06/26 03:09:48;;;;;;;;;;;;;;;22.99;67.22;96630.56;4220043;28;5663;-71
2022/06/26 03:11:51;;;;;;;;;;;;;;;23.00;67.14;96632.19;4220632;28;5840;-71
2022/06/26 03:13:54;;;;;;;;;;;;;;;22.98;66.51;96631.63;4219967;28;5676;-71
2022/06/26 03:15:57;;;;;;;;;;;;;;;22.99;66.26;96638.66;4220186;28;5749;-71
2022/06/26 03:18:02;;;;;;;;;;;;;;;23.00;66.17;96645.66;4220334;28;5662;-71
2022/06/26 03:20:08;;;;;;;;;;;;;;;22.98;66.56;96645.09;4220316;28;6351;-71
2022/06/26 03:22:11;;;;;;;;;;;;;;;22.98;66.17;96645.09;4219770;28;5750;-72
2022/06/26 03:24:14;;;;;;;;;;;;;;;22.98;65.96;96655.88;4205992;28;5705;-72
2022/06/26 03:26:17;;;;;;;;;;;;;;;23.00;65.75;96656.44;4203337;28;5696;-72
2022/06/26 03:28:20;;;;;;;;;;;;;;;23.00;65.76;96652.94;4203164;28;6397;-72
2022/06/26 03:30:23;;;;;;;;;;;;;;;23.00;66.00;96648.34;4202963;28;5685;-72
2022/06/26 03:32:26;;;;;;;;;;;;;;;23.02;65.68;96659.66;4202317;28;6386;-71
2022/06/26 03:34:29;;;;;;;;;;;;;;;23.02;65.67;96659.66;4201758;28;5759;-72
2022/06/26 03:36:34;;;;;;;;;;;;;;;23.01;65.48;96660.75;4202771;28;5947;-72
2022/06/26 03:38:38;;;;;;;;;;;;;;;23.00;65.75;96661.03;4203368;28;5757;-72
2022/06/26 03:40:41;;;;;;;;;;;;;;;23.03;65.41;96653.19;4203008;28;6007;-72
2022/06/26 03:42:44;;;;;;;;;;;;;;;23.06;64.98;96643.72;4202874;28;7705;-72
2022/06/26 03:44:47;;;;;;;;;;;;;;;23.08;64.79;96647.75;4202886;28;6366;-72
2022/06/26 03:46:50;;;;;;;;;;;;;;;23.09;65.09;96640.47;4203013;28;5744;-71
2022/06/26 03:48:53;;;;;;;;;;;;;;;23.08;64.79;96653.16;4202768;28;7249;-71
2022/06/26 03:50:56;;;;;;;;;;;;;;;23.07;64.72;96659.63;4202666;28;5717;-71
2022/06/26 03:53:00;;;;;;;;;;;;;;;23.06;64.82;96668.81;4202765;28;5688;-71
2022/06/26 03:55:04;;;;;;;;;;;;;;;23.08;64.88;96666.63;4201628;28;5776;-72
2022/06/26 03:57:07;;;;;;;;;;;;;;;23.11;64.61;96658.00;4202680;28;5676;-72
2022/06/26 03:59:10;;;;;;;;;;;;;;;23.11;64.32;96655.31;4203054;28;6434;-72
2022/06/26 04:01:13;;;;;;;;;;;;;;;23.08;64.61;96660.44;4202556;28;5692;-72
2022/06/26 04:03:16;;;;;;;;;;;;;;;23.08;64.86;96666.63;4202655;28;6351;-72
2022/06/26 04:05:20;;;;;;;;;;;;;;;23.08;64.91;96666.63;4202603;28;5697;-71
2022/06/26 04:07:23;;;;;;;;;;;;;;;23.09;64.49;96670.94;4210514;28;5091;-72
2022/06/26 04:09:29;;;;;;;;;;;;;;;23.07;64.41;96673.09;4201299;28;5786;-72
2022/06/26 04:11:32;;;;;;;;;;;;;;;23.08;64.54;96672.03;4202578;28;5676;-72
2022/06/26 04:13:55;;;;;;;;;;;;;;;23.07;64.41;96675.81;4201736;28;5677;-72
2022/06/26 04:15:58;;;;;;;;;;;;;;;23.05;64.50;96664.50;4202322;28;5684;-72
2022/06/26 04:18:02;;;;;;;;;;;;;;;23.05;64.86;96677.97;4201247;28;5760;-72
2022/06/26 04:20:06;;;;;;;;;;;;;;;23.08;64.37;96676.59;4202602;28;5684;-72
2022/06/26 04:22:10;;;;;;;;;;;;;;;23.08;64.43;96676.59;4202197;28;5763;-74
2022/06/26 04:24:13;;;;;;;;;;;;;;;23.06;64.73;96679.59;4214228;28;5770;-72
2022/06/26 04:26:17;;;;;;;;;;;;;;;23.09;64.26;96680.91;4219403;28;7658;-72
2022/06/26 04:28:20;;;;;;;;;;;;;;;23.08;64.70;96677.41;4219076;28;6385;-73
2022/06/26 04:30:24;;;;;;;;;;;;;;;23.09;64.51;96679.03;4219080;28;5675;-73
2022/06/26 04:32:27;;;;;;;;;;;;;;;23.11;64.52;96684.16;4218946;28;5765;-72
2022/06/26 04:34:30;;;;;;;;;;;;;;;23.12;64.08;96683.88;4219064;28;5670;-72
2022/06/26 04:36:33;;;;;;;;;;;;;;;23.13;64.31;96685.50;4218636;28;5687;-72
2022/06/26 04:38:36;;;;;;;;;;;;;;;23.12;64.29;96683.88;4219104;28;5663;-72
2022/06/26 04:40:39;;;;;;;;;;;;;;;23.10;64.08;96685.22;4218625;28;5700;-72
2022/06/26 04:42:44;;;;;;;;;;;;;;;23.12;64.34;96689.28;4218639;28;5738;-72
2022/06/26 04:44:46;;;;;;;;;;;;;;;23.13;64.33;96690.91;4218139;28;5671;-72
2022/06/26 04:46:49;;;;;;;;;;;;;;;23.18;64.08;96704.34;4218617;28;5667;-72
2022/06/26 04:48:52;;;;;;;;;;;;;;;23.17;63.88;96708.13;4212195;28;5823;-72
2022/06/26 04:50:55;;;;;;;;;;;;;;;23.16;63.86;96706.50;4217029;28;5663;-73
2022/06/26 04:52:59;;;;;;;;;;;;;;;23.17;64.26;96705.44;4218071;28;5664;-73
2022/06/26 04:55:02;;;;;;;;;;;;;;;23.15;63.66;96704.91;4216476;28;6639;-73
2022/06/26 04:57:05;;;;;;;;;;;;;;;23.15;63.65;96710.28;4217343;28;5681;-73
2022/06/26 04:59:10;;;;;;;;;;;;;;;23.18;64.09;96715.13;4218355;28;5672;-73
2022/06/26 05:01:13;;;;;;;;;;;;;;;23.20;63.81;96718.34;4218695;28;5671;-73
2022/06/26 05:03:16;;;;;;;;;;;;;;;23.23;63.47;96730.50;4218192;28;5080;-73
2022/06/26 05:05:19;;;;;;;;;;;;;;;23.26;63.42;96732.63;4215268;28;5701;-73
2022/06/26 05:07:22;;;;;;;;;;;;;;;23.27;63.40;96738.84;4201025;28;5733;-73
2022/06/26 05:09:25;;;;;;;;;;;;;;;23.30;63.82;96735.59;4215278;28;5755;-73
2022/06/26 05:11:28;;;;;;;;;;;;;;;23.30;63.93;96740.97;4218304;28;5698;-72
2022/06/26 05:13:31;;;;;;;;;;;;;;;;;;4216304;28;7686;-72
2022/06/26 05:15:35;;;;;;;;;;;;;;;23.34;63.49;96739.38;4206504;28;5899;-73
2022/06/26 05:17:38;;;;;;;;;;;;;;;23.36;63.74;96742.59;4208644;28;5671;-73
2022/06/26 05:19:41;;;;;;;;;;;;;;;23.39;63.27;96758.22;4218119;28;5671;-73
2022/06/26 05:21:44;;;;;;;;;;;;;;;23.39;63.48;96766.31;4218009;28;5069;-72
2022/06/26 05:23:47;;;;;;;;;;;;;;;23.38;63.57;96759.31;4218192;28;5671;-73
2022/06/26 05:25:50;;;;;;;;;;;;;;;23.38;63.37;96762.81;4217905;28;5679;-73
2022/06/26 05:27:53;;;;;;;;;;;;;;;23.37;63.41;96771.19;4217958;28;5663;-73
2022/06/26 05:29:56;;;;;;;;;;;;;;;23.37;63.28;96768.47;4218071;28;5707;-73
2022/06/26 05:32:00;;;;;;;;;;;;;;;23.35;63.41;96768.75;4218236;28;5700;-73
2022/06/26 05:34:04;;;;;;;;;;;;;;;23.35;63.18;96765.25;4217124;28;5687;-73
2022/06/26 05:36:09;;;;;;;;;;;;;;;23.35;62.91;96779.53;4215332;28;5663;-72
2022/06/26 05:38:11;;;;;;;;;;;;;;;;;;4216453;28;5675;-73
2022/06/26 05:40:14;;;;;;;;;;;;;;;23.35;62.56;96784.94;4215144;28;5923;-73
2022/06/26 05:42:17;;;;;;;;;;;;;;;23.38;62.63;96784.38;4216133;28;5679;-73
2022/06/26 05:44:20;;;;;;;;;;;;;;;23.40;62.95;96782.22;4214773;28;7720;-73
2022/06/26 05:46:23;;;;;;;;;;;;;;;23.41;62.72;96777.63;4212947;28;5688;-73
2022/06/26 05:48:27;;;;;;;;;;;;;;;23.40;62.49;96782.22;4227980;28;5675;-72
2022/06/26 05:50:30;;;;;;;;;;;;;;;23.40;62.30;96776.00;4209262;28;6368;-73
2022/06/26 05:52:34;;;;;;;;;;;;;;;23.36;62.37;96778.47;4215617;28;5807;-73
2022/06/26 05:54:37;;;;;;;;;;;;;;;23.30;62.41;96771.44;4212914;28;5663;-72
2022/06/26 05:56:39;;;;;;;;;;;;;;;;;;4217375;28;5664;-72
2022/06/26 05:58:42;;;;;;;;;;;;;;;23.28;62.50;96762.84;4214891;28;5742;-73
2022/06/26 06:00:45;;;;;;;;;;;;;;;23.27;62.51;96755.03;4214390;28;5758;-73
2022/06/26 06:02:48;;;;;;;;;;;;;;;;;;4210952;28;7714;-72
2022/06/26 06:04:52;;;;;;;;;;;;;;;23.37;62.56;96761.19;4209343;28;5700;-72
2022/06/26 06:06:55;;;;;;;;;;;;;;;23.47;62.36;96765.75;4209978;28;5850;-72
2022/06/26 06:08:58;;;;;;;;;;;;;;;23.55;62.05;96767.84;4199147;28;5899;-71
2022/06/26 06:11:01;;;;;;;;;;;;;;;23.60;61.92;96762.47;4209132;28;5847;-72
2022/06/26 06:13:04;;;;;;;;;;;;;;;23.65;61.57;96762.44;4194533;28;5722;-72
2022/06/26 06:15:10;;;;;;;;;;;;;;;23.66;61.18;96763.25;4199382;28;5801;-72
2022/06/26 06:19:33;;;;;;;;;;;;;;;23.85;60.94;96763.44;4198155;28;5736;-73
2022/06/26 06:21:37;;;;;;;;;;;;;;;23.88;61.08;96752.06;4199351;28;5830;-73
2022/06/26 06:23:42;;;;;;;;;;;;;;;24.02;60.64;96744.97;4199810;28;5744;-73
2022/06/26 06:25:45;;;;;;;;;;;;;;;24.26;60.46;96751.28;4185966;28;5715;-73
2022/06/26 06:27:49;;;;;;;;;;;;;;;24.31;60.12;96743.16;4195381;28;6374;-73
2022/06/26 06:29:52;;;;;;;;;;;;;;;24.35;60.00;96740.69;4199394;28;5680;-73
2022/06/26 06:31:55;;;;;;;;;;;;;;;24.32;60.09;96739.38;4200610;28;5704;-73
2022/06/26 06:33:59;;;;;;;;;;;;;;;24.25;60.27;96736.19;4198815;28;5791;-73
2022/06/26 06:36:02;;;;;;;;;;;;;;;24.25;60.31;96735.38;4198494;28;6996;-73
2022/06/26 06:38:06;;;;;;;;;;;;;;;24.22;60.00;96725.91;4199745;28;5803;-73
2022/06/26 06:40:10;;;;;;;;;;;;;;;24.20;60.38;96730.78;4199472;28;5704;-73
2022/06/26 06:42:13;;;;;;;;;;;;;;;24.16;60.21;96727.06;4184531;28;5765;-73
2022/06/26 06:44:16;;;;;;;;;;;;;;;24.17;60.07;96735.97;4199968;28;5696;-73
2022/06/26 06:46:19;;;;;;;;;;;;;;;24.14;60.00;96734.63;4194461;28;5771;-73
2022/06/26 06:48:24;;;;;;;;;;;;;;;24.05;60.27;96736.31;4191403;28;5883;-74
2022/06/26 06:50:28;;;;;;;;;;;;;;;23.95;60.53;96729.09;4199410;28;5791;-71
2022/06/26 06:52:31;;;;;;;;;;;;;;;23.90;60.29;96731.00;4199630;28;5756;-71
2022/06/26 06:54:35;;;;;;;;;;;;;;;23.91;60.58;96729.94;4199183;28;5950;-72
2022/06/26 06:56:38;;;;;;;;;;;;;;;23.89;60.50;96719.38;4199498;28;5689;-73
2022/06/26 06:58:41;;;;;;;;;;;;;;;23.89;60.78;96724.78;4198581;28;7168;-72
2022/06/26 07:00:44;;;;;;;;;;;;;;;23.84;60.70;96726.72;4198984;28;6648;-72
2022/06/26 07:02:47;;;;;;;;;;;;;;;23.82;60.47;96727.00;4199414;28;5824;-72
2022/06/26 07:04:50;;;;;;;;;;;;;;;23.78;60.77;96723.22;4200198;28;5681;-72
2022/06/26 07:06:53;;;;;;;;;;;;;;;23.74;60.81;96728.41;4196990;28;5697;-72
2022/06/26 07:08:56;;;;;;;;;;;;;;;23.75;61.07;96716.50;4198272;28;5696;-72
2022/06/26 07:11:01;;;;;;;;;;;;;;;23.76;60.62;96710.03;4202733;28;5808;-72
2022/06/26 07:13:04;;;;;;;;;;;;;;;23.79;60.61;96708.69;4200677;28;5724;-72
2022/06/26 07:15:08;;;;;;;;;;;;;;;23.79;60.68;96712.19;4193197;28;5709;-72
2022/06/26 07:17:11;;;;;;;;;;;;;;;23.84;60.47;96722.13;4186835;28;5816;-72
2022/06/26 07:19:17;;;;;;;;;;;;;;;23.84;60.85;96724.03;4196925;28;5097;-72
2022/06/26 07:21:20;;;;;;;;;;;;;;;23.81;60.97;96725.41;4202958;28;5779;-72
2022/06/26 07:23:23;;;;;;;;;;;;;;;23.82;60.61;96724.31;4202374;28;5688;-72
2022/06/26 07:25:26;;;;;;;;;;;;;;;23.83;60.65;96731.31;4204299;28;5713;-72
2022/06/26 07:27:30;;;;;;;;;;;;;;;23.87;60.45;96731.56;4202766;28;5764;-72
2022/06/26 07:29:34;;;;;;;;;;;;;;;23.88;60.51;96749.38;4200624;28;5700;-71
2022/06/26 07:31:37;;;;;;;;;;;;;;;23.89;60.60;96737.47;4199590;28;5677;-72
2022/06/26 07:36:00;;;;;;;;;;;;;;;23.85;60.52;96739.13;4196120;28;5760;-72
2022/06/26 07:38:04;;;;;;;;;;;;;;;23.81;60.65;96739.69;4202295;28;5905;-74
2022/06/26 07:40:09;;;;;;;;;;;;;;;23.79;60.44;96733.78;4201906;28;6390;-73
2022/06/26 07:42:12;;;;;;;;;;;;;;;23.78;60.92;96734.03;4203690;28;6962;-73
2022/06/26 07:44:17;;;;;;;;;;;;;;;23.80;60.63;96727.28;4202529;28;5886;-72
2022/06/26 07:46:20;;;;;;;;;;;;;;;23.80;60.66;96731.88;4199606;28;5696;-73
2022/06/26 07:48:23;;;;;;;;;;;;;;;23.83;61.00;96720.53;4198732;28;5783;-73
2022/06/26 07:50:26;;;;;;;;;;;;;;;23.85;60.62;96717.53;4199545;28;5795;-73
2022/06/26 07:52:29;;;;;;;;;;;;;;;23.87;60.88;96721.56;4197455;28;5918;-73
2022/06/26 07:54:32;;;;;;;;;;;;;;;23.91;60.52;96721.84;4200239;28;5771;-73
2022/06/26 07:56:35;;;;;;;;;;;;;;;23.96;60.33;96722.59;4197814;28;5823;-72
2022/06/26 07:58:38;;;;;;;;;;;;;;;24.01;60.86;96724.44;4198734;28;5791;-76
2022/06/26 08:00:42;;;;;;;;;;;;;;;24.09;60.39;96721.97;4194580;28;6320;-76
2022/06/26 08:02:46;;;;;;;;;;;;;;;24.11;60.45;96719.78;4199604;28;5803;-76
2022/06/26 08:04:49;;;;;;;;;;;;;;;24.12;60.60;96707.09;4200137;28;5799;-77
2022/06/26 08:06:52;;;;;;;;;;;;;;;24.15;60.46;96706.53;4201462;28;5770;-77
2022/06/26 08:08:56;;;;;;;;;;;;;;;24.17;60.45;96709.75;4199671;28;5842;-77
2022/06/26 08:10:59;;;;;;;;;;;;;;;24.23;60.26;96713.22;4194939;28;5820;-77
2022/06/26 08:13:02;;;;;;;;;;;;;;;24.28;60.20;96711.28;4183129;28;5809;-76
2022/06/26 08:15:07;;;;;;;;;;;;;;;24.32;60.11;96706.97;4188092;28;5791;-77
2022/06/26 08:17:11;;;;;;;;;;;;;;;24.34;60.43;96707.47;4216593;28;5770;-76
2022/06/26 08:19:14;;;;;;;;;;;;;;;24.37;60.01;96703.44;4216351;28;5762;-76
2022/06/26 08:23:37;;;;;;;;;;;;;;;24.46;60.28;96703.59;4213362;28;5787;-77
2022/06/26 08:25:41;;;;;;;;;;;;;;;24.53;59.87;96702.19;4199671;28;6493;-77
2022/06/26 08:27:44;;;;;;;;;;;;;;;24.57;60.07;96703.22;4199890;28;6405;-78
2022/06/26 08:29:46;;;;;;;;;;;;;;;24.63;60.09;96701.28;4199513;28;5879;-77
2022/06/26 08:31:49;;;;;;;;;;;;;;;24.68;59.80;96691.22;4199201;28;5787;-77
2022/06/26 08:33:54;;;;;;;;;;;;;;;24.75;59.84;96692.78;4197818;28;5902;-78
2022/06/26 08:35:57;;;;;;;;;;;;;;;24.83;59.83;96695.69;4199188;28;5892;-77
2022/06/26 08:38:00;;;;;;;;;;;;;;;24.88;59.83;96701.03;4199681;28;5883;-78
2022/06/26 08:40:03;;;;;;;;;;;;;;;24.96;59.43;96710.41;4199497;28;5796;-78
2022/06/26 08:42:08;;;;;;;;;;;;;;;24.93;59.83;96709.09;4199238;28;5803;-77
2022/06/26 08:44:11;;;;;;;;;;;;;;;24.90;59.59;96708.84;4198416;28;5803;-77
2022/06/26 08:46:17;;;;;;;;;;;;;;;24.85;59.73;96701.59;4196268;28;5901;-77
2022/06/26 08:48:27;;;;;;;;;;;;;;;24.82;59.76;96696.78;4197627;28;5110;-77
2022/06/26 08:50:32;;;;;;;;;;;;;;;24.83;59.65;96694.88;4185490;28;5763;-77
2022/06/26 08:52:35;;;;;;;;;;;;;;;24.87;59.66;96694.00;4183091;28;5898;-77
2022/06/26 08:54:39;;;;;;;;;;;;;;;24.88;59.33;96692.91;4196080;28;6508;-77
2022/06/26 08:56:45;;;;;;;;;;;;;;;24.90;59.35;96688.03;4199061;28;5747;-78
2022/06/26 08:58:48;;;;;;;;;;;;;;;24.90;59.26;96690.72;4198829;28;5840;-78
2022/06/26 09:00:51;;;;;;;;;;;;;;;24.97;59.51;96693.91;4197380;28;5811;-78
2022/06/26 09:02:54;;;;;;;;;;;;;;;24.99;59.16;96693.59;4197146;28;5803;-78
2022/06/26 09:04:57;;;;;;;;;;;;;;;25.02;59.53;96698.47;4199002;28;5807;-78
2022/06/26 09:07:02;;;;;;;;;;;;;;;25.05;59.40;96689.00;4200142;28;5774;-77
2022/06/26 09:09:14;;;;;;;;;;;;;;;25.06;59.33;96685.19;4207804;28;5807;-78
2022/06/26 09:11:17;;;;;;;;;;;;;;;25.11;59.04;96685.13;4204559;28;6456;-78
2022/06/26 09:13:20;;;;;;;;;;;;;;;25.15;59.15;96686.16;4208446;28;5879;-78
2022/06/26 09:15:26;;;;;;;;;;;;;;;25.21;58.89;96685.00;4203010;28;5766;-78
2022/06/26 09:17:30;;;;;;;;;;;;;;;25.22;59.06;96681.19;4196974;28;5907;-77
2022/06/26 09:19:36;;;;;;;;;;;;;;;25.26;58.75;96693.06;4188515;28;5809;-77
2022/06/26 09:21:39;;;;;;;;;;;;;;;25.28;58.99;96699.00;4182103;28;5821;-77
2022/06/26 09:23:53;;;;;;;;;;;;;;;25.22;58.80;96694.72;4187523;28;5832;-77
2022/06/26 09:25:57;;;;;;;;;;;;;;;25.17;58.95;96689.38;4208307;28;5830;-76
2022/06/26 09:28:06;;;;;;;;;;;;;;;25.16;59.01;96688.59;4198632;28;5783;-78
2022/06/26 09:30:10;;;;;;;;;;;;;;;25.14;58.79;96681.84;4197925;28;5824;-77
2022/06/26 09:32:15;;;;;;;;;;;;;;;25.08;58.71;96681.09;4198614;28;5808;-78
2022/06/26 09:34:24;;;;;;;;;;;;;;;25.03;58.99;96672.22;4198544;28;5791;-78
2022/06/26 09:36:27;;;;;;;;;;;;;;;24.99;58.85;96671.97;4198486;28;5842;-77
2022/06/26 09:38:31;;;;;;;;;;;;;;;25.00;58.88;96667.38;4198402;28;5900;-77
2022/06/26 09:40:35;;;;;;;;;;;;;;;24.96;59.02;96665.25;4195959;28;5816;-77
2022/06/26 09:42:39;;;;;;;;;;;;;;;24.97;58.71;96669.56;4198389;28;6504;-77
2022/06/26 09:44:47;;;;;;;;;;;;;;;24.89;58.73;96662.06;4189910;28;5820;-77
2022/06/26 09:46:50;;;;;;;;;;;;;;;24.85;58.90;96668.34;4190867;28;6534;-78
2022/06/26 09:48:57;;;;;;;;;;;;;;;24.84;59.35;96670.25;4191129;28;6621;-78
2022/06/26 09:51:00;;;;;;;;;;;;;;;24.83;58.95;96663.25;4197370;28;5792;-77
2022/06/26 09:53:05;;;;;;;;;;;;;;;24.86;59.10;96673.47;4195897;28;5727;-86
2022/06/26 09:55:09;;;;;;;;;;;;;;;24.85;58.96;96666.47;4200079;28;5828;-91
2022/06/26 09:57:14;;;;;;;;;;;;;;;24.82;58.76;96664.34;4195151;28;6645;-81
2022/06/26 09:59:18;;;;;;;;;;;;;;;24.80;58.58;96663.00;4203830;28;5773;-81
2022/06/26 10:08:28;;;;;;;;;;;;;;;24.79;58.96;96664.88;4200563;28;5800;-78
2022/06/26 10:10:32;;;;;;;;;;;;;;;24.80;58.96;96661.09;4196771;28;5866;-77
2022/06/26 10:12:38;;;;;;;;;;;;;;;24.81;58.81;96659.22;4205015;28;5815;-77
2022/06/26 10:14:46;;;;;;;;;;;;;;;24.84;58.71;96650.53;4201839;28;5791;-77
2022/06/26 10:17:00;;;;;;;;;;;;;;;24.87;59.02;96653.44;4200171;28;5891;-76
2022/06/26 10:19:23;;;;;;;;;;;;;;;24.90;58.93;96650.16;4206123;28;5896;-76
2022/06/26 10:21:26;;;;;;;;;;;;;;;24.93;58.82;96652.31;4207289;28;5788;-77
2022/06/26 10:23:34;;;;;;;;;;;;;;;24.92;59.04;96639.88;4208926;28;5774;-77
2022/06/26 10:25:37;;;;;;;;;;;;;;;24.90;58.79;96647.47;4197830;28;5784;-78
2022/06/26 10:27:41;;;;;;;;;;;;;;;24.92;59.08;96639.88;4197299;28;5834;-78
2022/06/26 10:29:44;;;;;;;;;;;;;;;24.97;58.71;96639.81;4196403;28;5852;-80
2022/06/26 10:31:49;;;;;;;;;;;;;;;25.05;58.40;96638.41;4197717;28;5770;-83
2022/06/26 10:33:52;;;;;;;;;;;;;;;25.09;58.45;96635.94;4198854;28;5787;-82
2022/06/26 10:35:57;;;;;;;;;;;;;;;25.12;58.46;96638.03;4199746;28;5687;-82
2022/06/26 10:38:17;;;;;;;;;;;;;;;25.15;58.46;96634.78;4203099;28;5760;-84
2022/06/26 10:42:56;;;;;;;;;;;;;;;25.29;58.20;96632.97;4209451;28;5696;-85
2022/06/26 10:45:05;;;;;;;;;;;;;;;25.34;58.16;96635.59;4203515;28;5838;-84
2022/06/26 10:47:15;;;;;;;;;;;;;;;25.36;58.00;96633.38;4204363;28;5774;-84
2022/06/26 10:49:18;;;;;;;;;;;;;;;25.38;58.24;96625.00;4210691;28;5770;-84
2022/06/26 10:51:26;;;;;;;;;;;;;;;25.42;57.98;96621.41;4204134;28;6514;-84
2022/06/26 10:53:31;;;;;;;;;;;;;;;25.45;58.16;96615.41;4211271;28;5818;-84
2022/06/26 10:55:35;;;;;;;;;;;;;;;25.50;58.12;96623.47;4201177;28;5787;-84
2022/06/26 10:57:39;;;;;;;;;;;;;;;25.53;58.19;96614.75;4196920;28;5885;-84
2022/06/26 10:59:45;;;;;;;;;;;;;;;25.61;58.02;96607.09;4200484;28;5819;-84
2022/06/26 11:01:48;;;;;;;;;;;;;;;25.64;57.95;96611.91;4206233;28;5786;-84
2022/06/26 11:03:51;;;;;;;;;;;;;;;25.62;57.74;96609.50;4216497;28;5722;-83
2022/06/26 11:05:56;;;;;;;;;;;;;;;25.60;57.76;96610.91;4220212;28;5812;-83
2022/06/26 11:07:59;;;;;;;;;;;;;;;25.58;58.00;96605.75;4201696;28;5881;-85
2022/06/26 11:10:02;;;;;;;;;;;;;;;25.57;58.10;96606.03;4203361;28;5313;-84
2022/06/26 11:12:06;;;;;;;;;;;;;;;25.60;58.11;96608.19;4205004;28;5823;-84
2022/06/26 11:14:10;;;;;;;;;;;;;;;25.57;58.16;96598.72;4201041;28;5843;-84
2022/06/26 11:16:14;;;;;;;;;;;;;;;25.55;58.04;96592.81;4201671;28;5863;-84
2022/06/26 11:18:17;;;;;;;;;;;;;;;25.55;57.78;96587.41;4203475;28;5799;-84